Time;durP1;ratioP1;P1;durP2;ratioP2;P2;SDS_P1;SDS_P2;PMS_P1;PMS_P2;Temp;Humidity;BMP_temperature;BMP_pressure;BME280_temperature;BME280_humidity;BME280_pressure;Samples;Min_cycle;Max_cycle;Signal;HPM_P1;HPM_P2
2024/01/08 00:01:16;;;;;;;;;13.75;12.00;;;;;20.71;37.93;102551.31;6400066;22;45237;-73
2024/01/08 00:03:41;;;;;;;;;12.75;12.25;;;;;20.69;37.63;102547.91;6400353;22;45181;-73
2024/01/08 00:06:06;;;;;;;;;12.50;12.50;;;;;20.62;37.72;102539.69;6399629;22;46197;-74
2024/01/08 00:08:32;;;;;;;;;11.00;10.00;;;;;20.70;37.86;102546.97;6399744;22;45206;-73
2024/01/08 00:10:58;;;;;;;;;14.00;12.00;;;;;20.66;37.88;102545.56;6398432;22;45276;-73
2024/01/08 00:13:23;;;;;;;;;10.33;10.00;;;;;20.59;37.60;102539.94;6399289;22;45293;-74
2024/01/08 00:15:48;;;;;;;;;13.75;11.25;;;;;20.63;37.87;102549.31;6400106;22;45230;-73
2024/01/08 00:18:14;;;;;;;;;11.75;9.75;;;;;20.68;37.64;102540.97;6400198;22;45225;-74
2024/01/08 00:20:41;;;;;;;;;10.25;9.75;;;;;20.68;37.74;102555.03;6399789;22;45468;-73
2024/01/08 00:23:06;;;;;;;;;11.00;10.00;;;;;20.69;37.75;102558.50;6399815;22;45413;-73
2024/01/08 00:25:31;;;;;;;;;12.00;12.00;;;;;20.68;37.82;102570.06;6399749;22;45390;-73
2024/01/08 00:27:56;;;;;;;;;8.25;8.25;;;;;20.57;37.90;102558.59;6398865;22;45385;-73
2024/01/08 00:30:22;;;;;;;;;11.00;10.00;;;;;20.67;38.02;102569.22;6400248;22;45231;-72
2024/01/08 00:32:47;;;;;;;;;14.00;11.33;;;;;20.67;37.88;102568.38;6400073;22;45613;-72
2024/01/08 00:35:13;;;;;;;;;11.00;10.00;;;;;20.67;37.25;102563.09;6399966;22;45261;-74
2024/01/08 00:37:40;;;;;;;;;10.50;9.00;;;;;20.62;38.00;102551.09;6399411;22;45860;-74
2024/01/08 00:40:07;;;;;;;;;11.25;11.25;;;;;20.66;37.41;102567.53;6399674;22;45295;-74
2024/01/08 00:42:33;;;;;;;;;14.00;11.00;;;;;20.43;37.75;102528.00;6399037;22;45416;-74
2024/01/08 00:44:58;;;;;;;;;11.33;11.00;;;;;20.63;37.56;102560.69;6399773;22;45211;-73
2024/01/08 00:47:23;;;;;;;;;11.00;10.00;;;;;20.55;37.31;102555.25;6370910;22;46647;-73
2024/01/08 00:49:49;;;;;;;;;9.67;9.67;;;;;20.65;37.60;102565.88;6399536;22;45245;-74
2024/01/08 00:52:14;;;;;;;;;14.75;11.75;;;;;20.62;37.62;102564.31;6399598;22;51185;-73
2024/01/08 00:54:39;;;;;;;;;9.00;8.67;;;;;20.61;37.50;102561.78;6399068;22;58977;-74
2024/01/08 00:57:05;;;;;;;;;9.67;9.67;;;;;20.62;37.26;102566.97;6399411;22;45274;-73
2024/01/08 00:59:30;;;;;;;;;9.00;9.00;;;;;20.55;37.51;102567.63;6399383;22;45312;-73
2024/01/08 01:01:57;;;;;;;;;10.00;10.00;;;;;20.59;37.24;102580.44;6399376;22;45509;-73
2024/01/08 01:04:22;;;;;;;;;9.33;9.33;;;;;20.51;37.23;102559.94;6399179;22;47017;-74
2024/01/08 01:06:48;;;;;;;;;11.75;11.00;;;;;20.62;37.35;102579.34;6399677;22;45240;-74
2024/01/08 01:09:13;;;;;;;;;11.50;10.00;;;;;20.51;37.31;102562.56;6399736;22;45354;-73
2024/01/08 01:11:38;;;;;;;;;11.50;10.50;;;;;20.48;37.09;102562.81;6398889;22;46184;-73
2024/01/08 01:14:04;;;;;;;;;10.50;7.50;;;;;20.54;37.44;102573.84;6399616;22;45917;-74
2024/01/08 01:16:29;;;;;;;;;11.50;10.00;;;;;20.58;37.46;102585.88;6399109;22;45311;-74
2024/01/08 01:18:56;;;;;;;;;10.00;9.00;;;;;20.59;37.24;102585.72;6399203;22;45282;-74
2024/01/08 01:21:22;;;;;;;;;8.00;8.00;;;;;20.59;37.10;102585.72;6399741;22;45181;-74
2024/01/08 01:23:48;;;;;;;;;9.00;9.00;;;;;20.51;36.89;102569.66;6398749;22;46947;-74
2024/01/08 01:26:14;;;;;;;;;10.00;10.00;;;;;20.59;37.33;102580.44;6398535;22;45237;-74
2024/01/08 01:28:40;;;;;;;;;7.50;7.00;;;;;20.53;37.18;102574.84;6399277;22;45285;-74
2024/01/08 01:31:05;;;;;;;;;8.00;7.00;;;;;20.58;36.98;102586.69;6398905;22;45425;-74
2024/01/08 01:33:31;;;;;;;;;7.25;7.00;;;;;20.49;36.90;102571.59;6399190;22;47033;-73
2024/01/08 01:35:56;;;;;;;;;9.00;9.00;;;;;20.54;37.13;102587.91;6398839;22;45307;-72
2024/01/08 01:38:22;;;;;;;;;10.75;8.75;;;;;20.56;36.64;102591.28;6399467;22;45693;-72
2024/01/08 01:40:47;;;;;;;;;9.00;9.00;;;;;20.50;36.60;102581.22;6400542;22;45342;-74
2024/01/08 01:43:23;;;;;;;;;8.25;8.25;;;;;20.44;36.62;102579.06;6400643;22;46279;-74
2024/01/08 01:45:50;;;;;;;;;8.00;8.00;;;;;20.54;36.65;102597.66;6372077;22;45942;-72
2024/01/08 01:48:16;;;;;;;;;8.00;8.00;;;;;20.55;36.75;102597.53;6372302;22;45281;-74
2024/01/08 01:50:41;;;;;;;;;8.75;8.75;;;;;20.57;36.90;102603.53;6400287;22;45256;-74
2024/01/08 01:53:07;;;;;;;;;6.00;6.00;;;;;20.55;36.57;102600.19;6400755;22;45955;-74
2024/01/08 01:55:32;;;;;;;;;9.67;8.67;;;;;20.48;36.97;102597.19;6399865;22;45208;-74
2024/01/08 01:57:58;;;;;;;;;8.33;7.00;;;;;20.53;36.94;102601.28;6401152;22;45755;-73
2024/01/08 02:00:24;;;;;;;;;8.33;8.33;;;;;20.58;36.96;102612.31;6400766;22;45312;-74
2024/01/08 02:02:50;;;;;;;;;8.00;7.25;;;;;20.58;36.80;102621.06;6400241;22;47321;-74
2024/01/08 02:05:16;;;;;;;;;10.00;8.00;;;;;20.57;36.89;102611.47;6400637;22;45223;-74
2024/01/08 02:07:43;;;;;;;;;8.00;8.00;;;;;20.57;37.01;102614.13;6400396;22;45287;-73
2024/01/08 02:10:09;;;;;;;;;7.75;7.50;;;;;20.57;37.13;102619.41;6399892;22;45292;-73
2024/01/08 02:12:35;;;;;;;;;6.67;6.67;;;;;20.57;37.27;102614.13;6400037;22;46180;-74
2024/01/08 02:15:04;;;;;;;;;7.50;7.50;;;;;20.56;37.15;102611.59;6400399;22;45271;-74
2024/01/08 02:17:29;;;;;;;;;7.00;7.00;;;;;20.56;37.11;102617.72;6401029;22;45302;-73
2024/01/08 02:19:55;;;;;;;;;7.00;7.00;;;;;20.57;36.89;102618.56;6400869;22;45756;-74
2024/01/08 02:22:20;;;;;;;;;10.50;8.00;;;;;20.56;36.89;102612.44;6400757;22;46045;-73
2024/01/08 02:24:45;;;;;;;;;8.75;8.00;;;;;20.56;37.07;102614.22;6371227;22;53040;-74
2024/01/08 02:27:11;;;;;;;;;7.67;7.00;;;;;20.56;36.97;102608.94;6400827;22;45334;-73
2024/01/08 02:29:36;;;;;;;;;9.00;8.00;;;;;20.48;37.01;102607.78;6400295;22;45466;-74
2024/01/08 02:32:02;;;;;;;;;7.00;7.00;;;;;20.53;37.24;102614.50;6400272;22;45861;-74
2024/01/08 02:34:27;;;;;;;;;8.67;8.00;;;;;20.52;37.26;102626.88;6400719;22;45314;-73
2024/01/08 02:36:52;;;;;;;;;8.33;7.00;;;;;20.53;37.23;102618.00;6400552;22;45291;-74
2024/01/08 02:39:18;;;;;;;;;8.00;5.67;;;;;20.53;37.01;102620.63;6400614;22;45303;-73
2024/01/08 02:41:43;;;;;;;;;7.00;7.00;;;;;20.52;37.22;102621.59;6400471;22;45374;-73
2024/01/08 02:44:08;;;;;;;;;7.75;7.00;;;;;20.51;37.30;102623.38;6400784;22;45286;-74
2024/01/08 02:46:34;;;;;;;;;8.33;7.00;;;;;20.51;37.08;102620.75;6400745;22;45334;-73
2024/01/08 02:48:59;;;;;;;;;9.25;9.25;;;;;20.38;37.07;102599.75;6400777;22;45279;-73
2024/01/08 02:51:25;;;;;;;;;7.00;7.00;;;;;20.53;37.00;102617.16;6399634;22;46923;-73
2024/01/08 02:53:50;;;;;;;;;7.00;7.00;;;;;20.29;36.81;102579.38;6399488;22;45303;-74
2024/01/08 02:56:23;;;;;;;;;7.00;7.00;;;;;20.49;37.07;102612.09;6400907;22;45354;-74
2024/01/08 02:58:49;;;;;;;;;7.67;7.67;;;;;20.53;36.76;102614.50;6400268;22;45462;-73
2024/01/08 03:01:14;;;;;;;;;6.00;6.00;;;;;20.51;36.75;102611.97;6399911;22;46124;-73
2024/01/08 03:03:40;;;;;;;;;6.75;6.25;;;;;20.51;36.69;102614.63;6400452;22;45306;-73
2024/01/08 03:06:05;;;;;;;;;7.25;7.25;;;;;20.54;36.78;102618.81;6400151;22;45266;-73
2024/01/08 03:08:31;;;;;;;;;9.25;6.00;;;;;20.40;36.68;102604.94;6400267;22;45277;-74
2024/01/08 03:10:56;;;;;;;;;8.67;7.00;;;;;20.50;36.47;102624.38;6371548;22;46350;-74
2024/01/08 03:13:21;;;;;;;;;7.00;7.00;;;;;20.49;36.76;102620.03;6400414;22;45235;-73
2024/01/08 03:15:47;;;;;;;;;7.00;4.33;;;;;20.53;36.66;102622.44;6400723;22;45232;-73
2024/01/08 03:18:12;;;;;;;;;6.33;6.33;;;;;20.53;36.84;102633.84;6399812;22;52126;-74
2024/01/08 03:20:38;;;;;;;;;7.00;7.00;;;;;20.53;36.74;102633.84;6399905;22;46995;-74
2024/01/08 03:23:03;;;;;;;;;8.33;6.00;;;;;20.53;36.69;102627.72;6400054;22;45251;-73
2024/01/08 03:25:29;;;;;;;;;6.67;5.00;;;;;20.52;36.98;102626.88;6400100;22;45675;-74
2024/01/08 03:27:54;;;;;;;;;5.00;5.00;;;;;20.52;36.96;102634.81;6399999;22;45413;-73
2024/01/08 03:30:19;;;;;;;;;8.00;8.00;;;;;20.51;36.90;102630.47;6399302;22;58242;-74
2024/01/08 03:32:45;;;;;;;;;4.50;4.50;;;;;20.44;37.27;102619.56;6399869;22;45161;-73
2024/01/08 03:35:10;;;;;;;;;7.75;7.00;;;;;20.40;36.84;102612.88;6400039;22;50706;-73
2024/01/08 03:37:36;;;;;;;;;7.00;6.00;;;;;20.48;36.81;102625.47;6399304;22;45521;-74
2024/01/08 03:40:02;;;;;;;;;6.33;5.67;;;;;20.35;36.77;102607.94;6399847;22;46048;-73
2024/01/08 03:42:27;;;;;;;;;7.75;7.00;;;;;20.50;36.43;102639.41;6399991;22;45382;-73
2024/01/08 03:44:53;;;;;;;;;8.50;8.00;;;;;20.36;37.26;102607.00;6400324;22;45293;-73
2024/01/08 03:47:19;;;;;;;;;5.50;4.00;;;;;20.48;36.81;102623.63;6371449;22;45359;-74
2024/01/08 03:49:44;;;;;;;;;6.67;5.33;;;;;20.50;37.04;102637.59;6399694;22;46887;-73
2024/01/08 03:52:10;;;;;;;;;7.00;6.75;;;;;20.48;37.11;102628.91;6399369;22;45425;-74
2024/01/08 03:54:35;;;;;;;;;5.00;4.00;;;;;20.46;36.82;102627.38;6400027;22;45235;-74
2024/01/08 03:57:01;;;;;;;;;5.50;5.00;;;;;20.43;37.14;102617.06;6400396;22;45395;-73
2024/01/08 03:59:26;;;;;;;;;6.00;3.33;;;;;20.42;36.87;102618.03;6400179;22;46104;-74
2024/01/08 04:01:52;;;;;;;;;8.00;6.67;;;;;20.42;36.96;102616.22;6400094;22;45220;-73
2024/01/08 04:04:18;;;;;;;;;7.00;5.67;;;;;20.50;36.86;102620.88;6399407;22;45227;-74
2024/01/08 04:06:44;;;;;;;;;5.33;4.67;;;;;20.49;36.59;102621.84;6399810;22;45284;-73
2024/01/08 04:09:09;;;;;;;;;4.00;4.00;;;;;20.50;36.55;102631.47;6399963;22;45775;-74
2024/01/08 04:11:34;;;;;;;;;5.67;5.67;;;;;20.38;36.86;102612.13;6399866;22;49198;-73
2024/01/08 04:14:00;;;;;;;;;6.00;6.00;;;;;20.49;37.16;102633.25;6399855;22;45190;-73
2024/01/08 04:16:25;;;;;;;;;6.00;6.00;;;;;20.50;36.91;102639.41;6400480;22;45198;-74
2024/01/08 04:18:52;;;;;;;;;4.33;4.00;;;;;20.39;36.71;102613.81;6399685;22;58310;-74
2024/01/08 04:21:17;;;;;;;;;6.33;6.33;;;;;20.48;36.76;102626.28;6370930;22;45317;-74
2024/01/08 04:23:43;;;;;;;;;5.00;5.00;;;;;20.32;36.78;102604.72;6399811;22;45357;-74
2024/01/08 04:26:15;;;;;;;;;4.67;4.33;;;;;20.38;37.01;102620.06;6400156;22;45251;-72
2024/01/08 04:28:40;;;;;;;;;4.00;4.00;;;;;20.47;36.95;102631.72;6399548;22;46950;-74
2024/01/08 04:31:06;;;;;;;;;5.00;5.00;;;;;20.46;36.84;102638.78;6400116;22;45520;-74
2024/01/08 04:33:31;;;;;;;;;4.33;4.33;;;;;20.45;36.69;102633.66;6399839;22;45323;-73
2024/01/08 04:35:56;;;;;;;;;5.00;4.00;;;;;20.46;36.89;102632.66;6398701;22;55225;-74
2024/01/08 04:38:21;;;;;;;;;5.00;4.00;;;;;20.44;36.59;102624.03;6398898;22;59781;-73
2024/01/08 04:40:47;;;;;;;;;6.67;6.67;;;;;20.47;36.91;102639.63;6399471;22;45867;-73
2024/01/08 04:43:12;;;;;;;;;4.00;4.00;;;;;20.46;37.10;102637.94;6399311;22;60662;-74
2024/01/08 04:45:37;;;;;;;;;6.00;2.00;;;;;20.45;36.77;102626.56;6371212;22;45503;-73
2024/01/08 04:48:03;;;;;;;;;6.00;4.67;;;;;20.46;36.89;102620.28;6370515;22;48316;-73
2024/01/08 04:50:29;;;;;;;;;4.00;4.00;;;;;20.28;37.12;102594.41;6399256;22;45405;-73
2024/01/08 04:52:54;;;;;;;;;6.33;5.67;;;;;20.47;36.86;102629.91;6399421;22;45345;-73
2024/01/08 04:55:20;;;;;;;;;5.00;5.00;;;;;20.49;36.84;102624.47;6399801;22;45281;-74
2024/01/08 04:57:46;;;;;;;;;5.00;5.00;;;;;20.33;36.90;102612.53;6399270;22;46932;-73
2024/01/08 05:00:12;;;;;;;;;5.67;5.00;;;;;20.48;36.97;102628.09;6399809;22;45255;-74
2024/01/08 05:02:37;;;;;;;;;4.33;4.00;;;;;20.47;36.91;102629.06;6398981;22;45233;-73
2024/01/08 05:05:04;;;;;;;;;5.00;5.00;;;;;20.44;36.97;102629.31;6399456;22;45384;-74
2024/01/08 05:07:30;;;;;;;;;4.00;4.00;;;;;20.47;36.95;102629.06;6399019;22;46862;-73
2024/01/08 05:09:55;;;;;;;;;6.33;4.00;;;;;20.39;36.82;102619.97;6399475;22;45294;-74
2024/01/08 05:12:21;;;;;;;;;3.33;3.00;;;;;20.47;37.21;102626.41;6399773;22;45324;-73
2024/01/08 05:14:46;;;;;;;;;6.00;5.33;;;;;20.42;36.94;102615.38;6400408;22;45252;-74
2024/01/08 05:17:11;;;;;;;;;4.33;4.00;;;;;20.40;36.58;102610.22;6399988;22;46389;-74
2024/01/08 05:19:37;;;;;;;;;3.67;3.67;;;;;20.40;37.00;102621.63;6400804;22;45315;-73
2024/01/08 05:22:02;;;;;;;;;3.00;3.00;;;;;20.47;36.68;102618.47;6401388;22;45205;-74
2024/01/08 05:24:27;;;;;;;;;4.33;3.00;;;;;20.34;37.19;102597.50;6400737;22;45349;-74
2024/01/08 05:26:53;;;;;;;;;4.67;4.00;;;;;20.47;36.83;102623.78;6400432;22;52976;-74
2024/01/08 05:29:18;;;;;;;;;5.33;5.33;;;;;20.36;36.83;102608.78;6400471;22;45385;-74
2024/01/08 05:31:43;;;;;;;;;3.00;3.00;;;;;20.43;37.12;102622.34;6400716;22;45321;-74
2024/01/08 05:34:09;;;;;;;;;4.00;4.00;;;;;20.41;36.80;102619.81;6401036;22;45334;-71
2024/01/08 05:36:34;;;;;;;;;4.67;4.00;;;;;20.46;36.67;102624.72;6400240;22;45229;-74
2024/01/08 05:39:00;;;;;;;;;6.33;4.00;;;;;20.44;36.95;102630.16;6400381;22;45253;-74
2024/01/08 05:41:25;;;;;;;;;4.00;4.00;;;;;20.44;36.71;102629.31;6400550;22;45236;-74
2024/01/08 05:43:51;;;;;;;;;3.00;3.00;;;;;20.35;36.77;102610.59;6401128;22;45417;-74
2024/01/08 05:46:16;;;;;;;;;4.00;4.00;;;;;20.45;36.92;102631.84;6400321;22;45821;-73
2024/01/08 05:48:41;;;;;;;;;5.67;4.00;;;;;20.37;36.76;102629.81;6400624;22;45225;-73
2024/01/08 05:51:07;;;;;;;;;3.00;3.00;;;;;20.45;36.55;102634.50;6400459;22;45284;-73
2024/01/08 05:53:33;;;;;;;;;4.00;4.00;;;;;20.44;36.38;102635.44;6401064;22;45423;-74
2024/01/08 05:55:58;;;;;;;;;5.00;4.00;;;;;20.31;36.78;102614.44;6400532;22;45870;-73
2024/01/08 05:58:24;;;;;;;;;4.67;4.67;;;;;20.45;37.00;102645.06;6400869;22;45235;-73
2024/01/08 06:00:49;;;;;;;;;5.00;4.33;;;;;20.34;36.78;102631.88;6400644;22;45210;-74
2024/01/08 06:03:15;;;;;;;;;3.67;3.67;;;;;20.45;36.63;102646.88;6400856;22;45425;-74
2024/01/08 06:05:40;;;;;;;;;5.00;4.00;;;;;20.34;36.88;102643.28;6400679;22;46195;-74
2024/01/08 06:08:07;;;;;;;;;4.00;4.00;;;;;20.42;36.61;102661.16;6400941;22;45471;-74
2024/01/08 06:10:33;;;;;;;;;3.00;3.00;;;;;20.40;36.58;102647.25;6401009;22;45325;-75
2024/01/08 06:12:58;;;;;;;;;3.00;3.00;;;;;20.45;36.39;102649.50;6400844;22;45393;-74
2024/01/08 06:15:23;;;;;;;;;5.33;4.00;;;;;20.39;36.66;102642.91;6400007;22;47329;-74
2024/01/08 06:17:49;;;;;;;;;4.67;3.33;;;;;20.39;35.82;102637.63;6400684;22;45320;-74
2024/01/08 06:20:14;;;;;;;;;3.00;3.00;;;;;20.45;36.39;102657.44;6400593;22;45414;-75
2024/01/08 06:22:40;;;;;;;;;3.00;3.00;;;;;20.41;36.57;102643.63;6400663;22;45310;-74
2024/01/08 06:25:05;;;;;;;;;4.00;3.00;;;;;20.36;36.57;102629.94;6399817;22;46841;-74
2024/01/08 06:27:31;;;;;;;;;5.33;4.00;;;;;20.45;36.34;102654.78;6400214;22;45235;-75
2024/01/08 06:29:56;;;;;;;;;5.00;4.33;;;;;20.45;36.23;102649.50;6400303;22;45302;-73
2024/01/08 06:32:21;;;;;;;;;5.33;3.00;;;;;20.16;36.44;102605.97;6400713;22;45580;-74
2024/01/08 06:34:47;;;;;;;;;4.33;3.00;;;;;20.48;36.64;102646.63;6400534;22;46370;-73
2024/01/08 06:37:12;;;;;;;;;5.00;4.00;;;;;20.47;36.94;102645.78;6400655;22;45228;-73
2024/01/08 06:39:38;;;;;;;;;5.33;4.00;;;;;20.49;37.16;102643.00;6400165;22;45322;-74
2024/01/08 06:42:04;;;;;;;;;5.67;4.67;;;;;20.36;37.23;102633.41;6400416;22;45235;-75
2024/01/08 06:44:29;;;;;;;;;3.33;3.00;;;;;20.38;37.09;102633.28;6399437;22;46196;-76
2024/01/08 06:46:55;;;;;;;;;4.67;4.67;;;;;20.43;37.15;102628.47;6399891;22;45274;-75
2024/01/08 06:49:21;;;;;;;;;6.33;5.00;;;;;20.39;37.00;102627.03;6400243;22;45252;-80
2024/01/08 06:51:46;;;;;;;;;3.67;3.67;;;;;20.49;37.07;102643.00;6399480;22;45459;-76
2024/01/08 06:54:12;;;;;;;;;6.00;5.00;;;;;20.54;37.22;102640.81;6400390;22;45799;-75
2024/01/08 06:56:38;;;;;;;;;4.67;4.33;;;;;20.29;36.70;102605.81;6371523;22;45652;-75
2024/01/08 06:59:03;;;;;;;;;4.67;3.33;;;;;20.43;36.98;102635.56;6400295;22;45261;-75
2024/01/08 07:01:30;;;;;;;;;4.00;3.00;;;;;20.52;37.01;102645.38;6400082;22;45450;-75
2024/01/08 07:03:56;;;;;;;;;6.75;4.50;;;;;20.40;36.65;102631.38;6399799;22;46224;-76
2024/01/08 07:06:21;;;;;;;;;2.67;2.67;;;;;20.50;37.24;102642.88;6399803;22;45297;-73
2024/01/08 07:08:46;;;;;;;;;3.00;3.00;;;;;20.46;36.63;102630.00;6400449;22;45177;-74
2024/01/08 07:11:25;;;;;;;;;6.67;3.00;;;;;20.48;36.85;102636.03;6400470;22;45146;-77
2024/01/08 07:13:51;;;;;;;;;6.00;4.33;;;;;20.50;36.80;102644.69;6399607;22;46691;-77
2024/01/08 07:16:17;;;;;;;;;4.00;4.00;;;;;20.50;36.98;102639.41;6400401;22;45401;-76
2024/01/08 07:18:42;;;;;;;;;5.00;3.00;;;;;20.50;37.08;102644.69;6400659;22;45386;-76
2024/01/08 07:21:09;;;;;;;;;3.00;3.00;;;;;20.49;36.72;102649.13;6399882;22;45472;-75
2024/01/08 07:23:35;;;;;;;;;2.67;2.67;;;;;20.47;36.99;102643.13;6400015;22;46202;-75
2024/01/08 07:26:01;;;;;;;;;4.00;2.00;;;;;20.48;36.92;102650.06;6400322;22;45225;-75
2024/01/08 07:28:28;;;;;;;;;2.67;2.67;;;;;20.50;36.99;102655.25;6399840;22;45207;-75
2024/01/08 07:30:53;;;;;;;;;4.00;2.00;;;;;20.45;36.96;102652.16;6400152;22;45219;-75
2024/01/08 07:33:19;;;;;;;;;3.33;2.67;;;;;20.48;36.79;102652.72;6399273;22;54579;-75
2024/01/08 07:35:44;;;;;;;;;2.00;2.00;;;;;20.50;36.71;102652.63;6400103;22;45200;-76
2024/01/08 07:38:09;;;;;;;;;2.67;2.33;;;;;20.49;36.74;102651.78;6400584;22;45199;-75
2024/01/08 07:40:35;;;;;;;;;5.00;4.67;;;;;20.45;36.40;102637.13;6400292;22;45240;-75
2024/01/08 07:43:01;;;;;;;;;2.33;2.33;;;;;20.51;36.77;102646.34;6399395;22;46964;-75
2024/01/08 07:45:27;;;;;;;;;3.00;3.00;;;;;20.38;36.77;102631.50;6400672;22;45574;-76
2024/01/08 07:47:53;;;;;;;;;3.67;2.00;;;;;20.47;36.91;102645.78;6399984;22;45406;-75
2024/01/08 07:50:21;;;;;;;;;2.00;2.00;;;;;20.50;36.72;102648.19;6400360;22;45424;-75
2024/01/08 07:52:47;;;;;;;;;3.00;3.00;;;;;20.33;37.16;102623.09;6399689;22;47189;-75
2024/01/08 07:55:12;;;;;;;;;2.00;2.00;;;;;20.45;36.51;102650.34;6399704;22;45231;-75
2024/01/08 07:57:37;;;;;;;;;3.33;3.33;;;;;20.49;36.99;102650.91;6399632;22;45220;-76
2024/01/08 08:00:06;;;;;;;;;5.00;4.33;;;;;20.48;36.94;102642.16;6399489;22;56051;-75
2024/01/08 08:02:35;;;;;;;;;2.00;2.00;;;;;20.49;36.96;102650.91;6399721;22;46889;-75
2024/01/08 08:05:00;;;;;;;;;2.00;2.00;;;;;20.44;36.39;102647.81;6399647;22;45317;-75
2024/01/08 08:07:25;;;;;;;;;3.00;3.00;;;;;20.45;36.81;102647.72;6399777;22;45275;-76
2024/01/08 08:09:51;;;;;;;;;5.00;4.00;;;;;20.47;36.68;102651.06;6371251;22;45720;-75
2024/01/08 08:12:17;;;;;;;;;3.00;3.00;;;;;20.32;36.93;102626.72;6398910;22;54574;-75
2024/01/08 08:14:43;;;;;;;;;4.00;2.67;;;;;20.47;36.64;102660.78;6400347;22;45261;-75
2024/01/08 08:17:09;;;;;;;;;3.00;3.00;;;;;20.46;36.72;102656.44;6399680;22;45273;-75
2024/01/08 08:19:34;;;;;;;;;3.00;3.00;;;;;20.25;36.59;102625.50;6371348;22;45214;-75
2024/01/08 08:22:00;;;;;;;;;3.00;3.00;;;;;20.46;36.85;102659.09;6399615;22;46277;-76
2024/01/08 08:24:25;;;;;;;;;4.00;4.00;;;;;20.45;36.67;102660.09;6400053;22;45194;-75
2024/01/08 08:26:50;;;;;;;;;4.00;3.00;;;;;20.44;36.69;102667.16;6370299;22;55879;-75
2024/01/08 08:29:16;;;;;;;;;3.67;2.00;;;;;20.45;36.57;102666.22;6400199;22;45286;-75
2024/01/08 08:31:41;;;;;;;;;6.33;3.00;;;;;20.44;36.65;102675.09;6399416;22;46973;-76
2024/01/08 08:34:07;;;;;;;;;4.67;3.00;;;;;20.43;36.63;102662.84;6400062;22;45309;-76
2024/01/08 08:36:32;;;;;;;;;3.00;3.00;;;;;20.20;37.03;102638.25;6371420;22;45359;-75
2024/01/08 08:38:58;;;;;;;;;4.67;3.33;;;;;20.44;36.52;102676.91;6399947;22;45415;-75
2024/01/08 08:41:23;;;;;;;;;2.00;2.00;;;;;20.34;36.70;102664.44;6399472;22;46225;-75
2024/01/08 08:43:48;;;;;;;;;3.00;3.00;;;;;20.43;36.82;102677.88;6399948;22;45342;-75
2024/01/08 08:46:17;;;;;;;;;3.00;3.00;;;;;20.42;36.18;102687.63;6400046;22;45322;-75
2024/01/08 08:48:42;;;;;;;;;3.00;3.00;;;;;20.44;36.35;102690.97;6399544;22;45166;-76
2024/01/08 08:51:08;;;;;;;;;3.00;3.00;;;;;20.43;36.27;102689.28;6398672;22;52300;-76
2024/01/08 08:53:33;;;;;;;;;2.00;2.00;;;;;20.34;36.67;102668.88;6400078;22;45240;-75
2024/01/08 08:55:58;;;;;;;;;3.00;3.00;;;;;20.42;36.27;102689.41;6399907;22;45244;-75
2024/01/08 08:58:24;;;;;;;;;3.33;3.00;;;;;20.28;36.66;102670.22;6399589;22;50035;-75
2024/01/08 09:00:50;;;;;;;;;3.67;3.67;;;;;20.33;36.68;102681.25;6399397;22;46831;-75
2024/01/08 09:03:15;;;;;;;;;4.00;3.00;;;;;20.39;36.55;102703.72;6399165;22;45228;-76
2024/01/08 09:05:41;;;;;;;;;2.67;2.00;;;;;20.40;36.38;102706.22;6399339;22;45218;-76
2024/01/08 09:08:06;;;;;;;;;2.67;2.00;;;;;20.29;36.38;102685.13;6370906;22;45161;-75
2024/01/08 09:10:32;;;;;;;;;3.67;3.00;;;;;20.40;36.33;102710.69;6398705;22;46427;-75
2024/01/08 09:12:58;;;;;;;;;3.33;3.33;;;;;20.39;36.19;102707.22;6399626;22;45294;-76
2024/01/08 09:15:23;;;;;;;;;4.67;3.00;;;;;20.29;36.18;102693.03;6399482;22;45270;-75
2024/01/08 09:17:49;;;;;;;;;5.00;3.00;;;;;20.40;35.92;102726.56;6399176;22;45375;-75
2024/01/08 09:20:15;;;;;;;;;2.67;2.67;;;;;20.37;35.93;102714.44;6398895;22;47341;-75
2024/01/08 09:22:40;;;;;;;;;3.33;3.33;;;;;20.39;35.89;102720.44;6398818;22;45313;-76
2024/01/08 09:25:07;;;;;;;;;4.00;4.00;;;;;20.13;35.78;102678.41;6399309;22;45687;-75
2024/01/08 09:27:32;;;;;;;;;4.00;4.00;;;;;20.38;36.11;102717.88;6399116;22;45450;-75
2024/01/08 09:29:58;;;;;;;;;4.00;3.33;;;;;20.38;36.36;102725.81;6370110;22;47065;-75
2024/01/08 09:32:27;;;;;;;;;4.00;3.00;;;;;20.38;36.08;102715.25;6399030;22;45234;-75
2024/01/08 09:34:53;;;;;;;;;4.00;4.00;;;;;20.38;36.11;102725.81;6399094;22;45336;-75
2024/01/08 09:37:20;;;;;;;;;6.00;3.00;;;;;20.36;36.21;102718.03;6399568;22;45298;-76
2024/01/08 09:39:45;;;;;;;;;3.67;3.67;;;;;20.35;36.16;102721.63;6398093;22;46046;-76
2024/01/08 09:42:11;;;;;;;;;4.00;4.00;;;;;20.26;36.22;102712.63;6399371;22;45278;-75
2024/01/08 09:44:38;;;;;;;;;3.33;3.33;;;;;20.36;36.15;102719.81;6398958;22;45275;-75
2024/01/08 09:47:04;;;;;;;;;5.00;4.67;;;;;20.35;35.94;102726.91;6398862;22;45237;-76
2024/01/08 09:49:32;;;;;;;;;3.33;3.00;;;;;20.36;35.86;102746.25;6398717;22;46143;-75
2024/01/08 09:52:00;;;;;;;;;5.33;5.00;;;;;20.35;35.82;102740.13;6398651;22;45325;-75
2024/01/08 09:54:27;;;;;;;;;4.00;4.00;;;;;20.36;36.00;102738.31;6398438;22;45281;-75
2024/01/08 09:56:54;;;;;;;;;5.67;4.67;;;;;20.36;35.96;102739.16;6398937;22;45126;-75
2024/01/08 09:59:20;;;;;;;;;4.00;3.00;;;;;20.36;35.55;102754.19;6398498;22;47101;-75
2024/01/08 10:01:45;;;;;;;;;3.75;3.75;;;;;20.36;35.96;102762.97;6399398;22;45208;-75
2024/01/08 10:04:10;;;;;;;;;7.00;5.00;;;;;20.27;35.95;102735.44;6401114;22;45329;-75
2024/01/08 10:06:38;;;;;;;;;6.00;4.00;;;;;20.22;35.82;102734.16;6400365;22;45251;-75
2024/01/08 10:09:04;;;;;;;;;3.67;3.67;;;;;20.34;36.06;102746.38;6399818;22;46315;-75
2024/01/08 10:11:30;;;;;;;;;4.00;4.00;;;;;20.20;35.68;102733.41;6400257;22;45257;-76
2024/01/08 10:13:55;;;;;;;;;5.00;5.00;;;;;20.34;35.63;102756.13;6400498;22;45353;-75
2024/01/08 10:16:20;;;;;;;;;4.33;4.33;;;;;20.33;35.57;102743.84;6400930;22;45387;-75
2024/01/08 10:18:49;;;;;;;;;4.33;4.33;;;;;20.33;35.68;102749.97;6400667;22;46321;-75
2024/01/08 10:21:15;;;;;;;;;6.50;3.75;;;;;20.30;35.57;102744.94;6400347;22;45221;-75
2024/01/08 10:23:41;;;;;;;;;4.25;4.25;;;;;20.21;35.43;102732.47;6400411;22;45226;-75
2024/01/08 10:26:12;;;;;;;;;6.00;6.00;;;;;20.21;35.55;102727.19;6399960;22;45334;-75
2024/01/08 10:28:38;;;;;;;;;3.75;3.75;;;;;20.31;35.69;102743.13;6399907;22;46166;-75
2024/01/08 10:31:05;;;;;;;;;5.00;5.00;;;;;20.22;35.54;102729.69;6400662;22;45214;-76
2024/01/08 10:33:31;;;;;;;;;5.00;4.75;;;;;20.30;35.77;102742.28;6400483;22;45252;-76
2024/01/08 10:35:57;;;;;;;;;4.00;4.00;;;;;20.21;35.44;102729.81;6400265;22;45387;-75
2024/01/08 10:38:23;;;;;;;;;4.00;4.00;;;;;20.16;35.55;102723.09;6399798;22;46644;-75
2024/01/08 10:40:49;;;;;;;;;3.00;3.00;;;;;20.31;35.62;102751.06;6400121;22;45248;-75
2024/01/08 10:43:14;;;;;;;;;5.25;5.25;;;;;20.28;35.66;102731.00;6400871;22;45319;-75
2024/01/08 10:45:39;;;;;;;;;5.25;5.00;;;;;20.31;35.55;102741.34;6400918;22;45457;-75
2024/01/08 10:48:18;;;;;;;;;3.25;3.00;;;;;20.31;35.36;102730.75;6400546;22;46108;-75
2024/01/08 10:50:46;;;;;;;;;5.67;4.67;;;;;20.26;35.47;102723.22;6399712;22;45165;-75
2024/01/08 10:53:20;;;;;;;;;4.67;4.67;;;;;20.26;35.51;102730.28;6400226;22;45276;-76
2024/01/08 10:55:45;;;;;;;;;4.00;4.00;;;;;20.10;35.34;102689.19;6371741;22;45241;-75
2024/01/08 10:58:22;;;;;;;;;3.00;3.00;;;;;20.31;35.38;102724.63;6400073;22;47132;-75
2024/01/08 11:00:48;;;;;;;;;4.00;4.00;;;;;20.30;35.21;102715.84;6400061;22;45318;-75
2024/01/08 11:03:13;;;;;;;;;4.67;4.67;;;;;20.31;35.08;102719.34;6400715;22;45851;-75
2024/01/08 11:05:39;;;;;;;;;4.67;4.67;;;;;20.31;35.18;102712.25;6400371;22;45372;-75
2024/01/08 11:08:06;;;;;;;;;4.33;3.00;;;;;19.99;35.34;102666.25;6399896;22;47216;-76
2024/01/08 11:10:32;;;;;;;;;4.33;3.67;;;;;20.32;35.24;102715.75;6400429;22;45347;-75
2024/01/08 11:12:58;;;;;;;;;3.67;3.67;;;;;20.26;35.04;102701.22;6400290;22;45210;-75
2024/01/08 11:15:27;;;;;;;;;6.00;4.67;;;;;20.15;34.88;102684.41;6400523;22;45337;-75
2024/01/08 11:17:56;;;;;;;;;5.67;4.00;;;;;20.29;35.17;102703.63;6399996;22;46104;-75